Time;durP1;ratioP1;P1;durP2;ratioP2;P2;SDS_P1;SDS_P2;PMS_P1;PMS_P2;Temp;Humidity;BMP_temperature;BMP_pressure;BME280_temperature;BME280_humidity;BME280_pressure;Samples;Min_cycle;Max_cycle;Signal;HPM_P1;HPM_P2
2023/12/19 00:00:05;;;;;;;31.08;14.07;;;;;;;0.98;81.48;95132.09;5067539;28;20025;-84
2023/12/19 00:02:31;;;;;;;32.22;14.32;;;;;;;0.95;81.35;95133.31;5067691;28;20021;-83
2023/12/19 00:04:56;;;;;;;30.67;14.05;;;;;;;0.94;81.47;95129.09;5067677;28;20012;-82
2023/12/19 00:07:21;;;;;;;26.48;12.25;;;;;;;0.90;81.44;95122.69;5067388;28;20315;-83
2023/12/19 00:09:48;;;;;;;26.15;12.55;;;;;;;0.88;81.60;95121.31;5067260;28;20024;-83
2023/12/19 00:12:13;;;;;;;31.23;13.85;;;;;;;0.89;81.87;95123.69;5067111;28;20091;-83
2023/12/19 00:14:39;;;;;;;29.65;12.52;;;;;;;0.90;82.23;95127.13;5066093;28;20025;-83
2023/12/19 00:17:04;;;;;;;27.05;13.13;;;;;;;0.94;82.30;95131.72;5065769;28;20079;-83
2023/12/19 00:19:29;;;;;;;22.48;10.63;;;;;;;0.96;82.26;95140.19;5065952;28;20021;-83
2023/12/19 00:21:56;;;;;;;27.00;12.77;;;;;;;0.97;82.26;95133.09;5065461;28;20323;-84
2023/12/19 00:24:21;;;;;;;29.58;12.20;;;;;;;0.98;81.96;95134.72;5067022;28;20218;-84
2023/12/19 00:26:47;;;;;;;25.70;11.73;;;;;;;0.92;81.81;95144.25;5067744;28;20055;-84
2023/12/19 00:29:12;;;;;;;25.25;12.00;;;;;;;0.89;81.87;95147.31;5065813;28;20021;-84
2023/12/19 00:31:37;;;;;;;26.10;11.20;;;;;;;0.90;81.82;95146.31;5066468;28;20017;-80
2023/12/19 00:34:03;;;;;;;27.25;12.50;;;;;;;0.89;81.73;95144.69;5067346;28;20084;-88
2023/12/19 00:36:28;;;;;;;27.08;12.15;;;;;;;0.89;81.59;95143.91;5066028;28;20013;-87
2023/12/19 00:38:54;;;;;;;30.23;13.13;;;;;;;0.85;81.96;95143.53;5067372;28;20013;-87
2023/12/19 00:41:19;;;;;;;28.20;13.00;;;;;;;0.86;82.05;95150.41;5066886;28;20024;-87
2023/12/19 00:43:45;;;;;;;33.88;13.57;;;;;;;0.89;82.14;95151.78;5067475;28;20021;-92
2023/12/19 00:46:11;;;;;;;28.83;13.98;;;;;;;0.87;82.07;95151.97;5067581;28;20021;-91
2023/12/19 00:48:36;;;;;;;24.38;12.48;;;;;;;0.86;81.55;95145.16;5067487;28;20017;-90
2023/12/19 00:51:07;;;;;;;23.23;12.13;;;;;;;0.83;81.56;95145.56;5067053;28;20075;-90
2023/12/19 00:53:33;;;;;;;28.73;12.35;;;;;;;0.77;81.66;95141.19;5067371;28;20017;-90
2023/12/19 00:55:58;;;;;;;31.73;14.18;;;;;;;0.74;81.97;95136.41;5067252;28;20028;-89
2023/12/19 00:58:23;;;;;;;33.67;15.32;;;;;;;0.75;81.86;95133.56;5066172;28;20045;-92
2023/12/19 01:00:49;;;;;;;27.85;14.35;;;;;;;0.73;81.87;95134.78;5066654;28;20057;-89
2023/12/19 01:03:14;;;;;;;35.67;14.50;;;;;;;0.74;81.63;95121.47;5067274;28;20024;-91
2023/12/19 01:05:40;;;;;;;32.05;14.93;;;;;;;0.73;81.57;95132.16;5066114;28;20107;-90
2023/12/19 01:08:05;;;;;;;32.47;14.68;;;;;;;0.70;81.53;95127.38;5067434;28;20020;-92
2023/12/19 01:10:31;;;;;;;31.05;14.00;;;;;;;0.71;81.01;95126.34;5066754;28;20032;-91
2023/12/19 01:12:56;;;;;;;33.45;14.43;;;;;;;0.66;81.11;95128.84;5066945;28;20103;-91
2023/12/19 01:15:24;;;;;;;32.85;13.73;;;;;;;0.60;81.19;95117.38;5066646;28;20016;-91
2023/12/19 01:17:49;;;;;;;28.75;14.27;;;;;;;0.60;81.55;95117.38;5066500;28;20017;-91
2023/12/19 01:20:15;;;;;;;33.25;14.35;;;;;;;0.60;81.34;95112.94;5065787;28;20070;-91
2023/12/19 01:22:40;;;;;;;33.10;14.05;;;;;;;0.59;81.67;95110.53;5066604;28;20025;-90
2023/12/19 01:25:06;;;;;;;29.30;14.20;;;;;;;0.58;81.36;95108.94;5065959;28;20148;-91
2023/12/19 01:27:32;;;;;;;23.02;12.73;;;;;;;0.56;81.80;95103.09;5066559;28;20017;-90
2023/12/19 01:29:57;;;;;;;24.73;12.75;;;;;;;0.58;81.86;95106.31;5065639;28;20024;-91
2023/12/19 01:32:23;;;;;;;26.63;13.30;;;;;;;0.59;81.92;95116.59;5066366;28;20024;-86
2023/12/19 01:34:48;;;;;;;26.42;12.77;;;;;;;0.55;81.92;95117.22;5065607;28;20021;-86
2023/12/19 01:37:14;;;;;;;28.55;12.43;;;;;;;0.54;81.71;95113.81;5065092;28;20024;-87
2023/12/19 01:39:39;;;;;;;25.48;12.98;;;;;;;0.56;81.32;95121.47;5064436;28;20105;-86
2023/12/19 01:42:04;;;;;;;28.38;12.10;;;;;;;0.50;81.64;95104.78;5065733;28;20024;-87
2023/12/19 01:44:30;;;;;;;30.65;13.88;;;;;;;0.48;81.80;95111.28;5065269;28;20027;-86
2023/12/19 01:46:55;;;;;;;28.95;13.32;;;;;;;0.46;82.01;95108.84;5065579;28;20032;-86
2023/12/19 01:49:22;;;;;;;27.33;13.93;;;;;;;0.45;82.25;95109.91;5065228;28;20021;-87
2023/12/19 01:51:48;;;;;;;27.45;12.90;;;;;;;0.48;82.22;95113.88;5064401;28;20045;-86
2023/12/19 01:54:15;;;;;;;33.63;14.70;;;;;;;0.45;82.42;95102.03;5065630;28;20017;-90
2023/12/19 01:56:40;;;;;;;29.05;12.07;;;;;;;0.47;82.28;95104.41;5065972;28;20326;-92
2023/12/19 01:59:06;;;;;;;26.23;12.40;;;;;;;0.46;82.65;95103.63;5065270;28;20096;-92
2023/12/19 02:01:34;;;;;;;19.63;9.68;;;;;;;0.47;83.57;95096.53;5065674;28;20135;-91
2023/12/19 02:04:00;;;;;;;30.13;12.27;;;;;;;0.55;84.13;95099.69;5066038;28;20028;-90
2023/12/19 02:06:26;;;;;;;23.17;11.45;;;;;;;0.55;84.01;95091.81;5065847;28;20100;-91
2023/12/19 02:08:52;;;;;;;26.77;12.88;;;;;;;0.56;84.01;95092.59;5065903;28;20032;-91
2023/12/19 02:11:18;;;;;;;26.30;11.90;;;;;;;0.58;83.68;95091.34;5064878;28;20032;-91
2023/12/19 02:13:44;;;;;;;29.08;12.13;;;;;;;0.59;83.54;95090.34;5065387;28;20100;-85
2023/12/19 02:16:10;;;;;;;23.17;11.30;;;;;;;0.57;83.15;95087.16;5065876;28;20047;-90
2023/12/19 02:18:35;;;;;;;20.02;10.95;;;;;;;0.60;83.05;95088.53;5065642;28;20017;-90
2023/12/19 02:21:02;;;;;;;24.90;10.45;;;;;;;0.64;83.08;95094.13;5065867;28;20215;-90
2023/12/19 02:23:27;;;;;;;23.33;10.70;;;;;;;0.64;82.93;95088.88;5065346;28;20031;-91
2023/12/19 02:25:53;;;;;;;24.25;11.32;;;;;;;0.62;82.89;95088.31;5064521;28;20028;-90
2023/12/19 02:28:19;;;;;;;22.75;10.48;;;;;;;0.66;82.50;95097.34;5065491;28;20048;-89
2023/12/19 02:30:44;;;;;;;29.83;10.70;;;;;;;0.62;82.33;95088.31;5065757;28;20025;-90
2023/12/19 02:33:10;;;;;;;22.55;8.60;;;;;;;0.62;81.91;95083.06;5064374;28;20074;-90
2023/12/19 02:35:35;;;;;;;18.85;9.45;;;;;;;0.58;81.61;95077.44;5065809;28;20223;-90
2023/12/19 02:38:00;;;;;;;17.80;9.00;;;;;;;0.52;81.57;95079.13;5064841;28;20032;-90
2023/12/19 02:40:26;;;;;;;19.73;9.50;;;;;;;0.52;81.55;95076.50;5064242;28;20020;-89
2023/12/19 02:42:51;;;;;;;20.10;9.43;;;;;;;0.53;81.28;95083.38;5065563;28;20254;-90
2023/12/19 02:45:17;;;;;;;20.00;8.63;;;;;;;0.45;81.33;95073.16;5063941;28;20036;-86
2023/12/19 02:47:42;;;;;;;19.55;10.05;;;;;;;0.47;81.38;95075.53;5063918;28;20083;-91
2023/12/19 02:50:08;;;;;;;20.92;9.60;;;;;;;0.51;81.28;95077.53;5064436;28;20066;-92
2023/12/19 02:52:34;;;;;;;20.85;9.07;;;;;;;0.43;81.31;95071.75;5064473;28;20032;-92
2023/12/19 02:54:59;;;;;;;22.13;9.02;;;;;;;0.43;81.54;95069.97;5065049;28;20090;-92
2023/12/19 02:57:25;;;;;;;16.42;7.82;;;;;;;0.40;81.51;95073.00;5064958;28;20056;-92
2023/12/19 02:59:50;;;;;;;20.33;9.07;;;;;;;0.40;81.59;95058.06;5065551;28;20025;-92
2023/12/19 03:02:16;;;;;;;18.92;9.07;;;;;;;0.40;80.94;95065.13;5063997;28;20028;-92
2023/12/19 03:04:41;;;;;;;15.30;8.00;;;;;;;0.37;80.99;95065.59;5064300;28;20100;-91
2023/12/19 03:07:08;;;;;;;17.00;8.25;;;;;;;0.38;80.78;95069.81;5064964;28;20395;-91
2023/12/19 03:09:34;;;;;;;21.13;7.93;;;;;;;0.34;80.74;95060.78;5065052;28;20032;-91
2023/12/19 03:11:59;;;;;;;16.55;7.82;;;;;;;0.34;80.63;95063.41;5064702;28;20040;-91
2023/12/19 03:14:25;;;;;;;14.10;7.05;;;;;;;0.25;81.26;95065.53;5064921;28;20235;-90
2023/12/19 03:16:50;;;;;;;16.98;7.90;;;;;;;0.19;81.38;95064.56;5065021;28;20386;-90
2023/12/19 03:19:16;;;;;;;18.73;7.70;;;;;;;0.17;81.48;95063.97;5064079;28;20024;-87
2023/12/19 03:21:41;;;;;;;12.82;7.00;;;;;;;0.10;81.24;95065.06;5062493;28;20031;-87
2023/12/19 03:24:06;;;;;;;17.23;6.72;;;;;;;0.12;81.18;95070.88;5062412;28;20287;-87
2023/12/19 03:26:32;;;;;;;15.85;8.23;;;;;;;0.13;81.16;95077.75;5064186;28;20020;-87
2023/12/19 03:28:57;;;;;;;15.70;7.88;;;;;;;0.13;81.09;95077.75;5063878;28;20114;-88
2023/12/19 03:31:23;;;;;;;15.18;7.43;;;;;;;0.09;81.45;95068.72;5064732;28;20093;-91
2023/12/19 03:33:48;;;;;;;16.67;7.82;;;;;;;0.09;81.59;95066.88;5064943;28;20298;-91
2023/12/19 03:36:14;;;;;;;18.08;8.40;;;;;;;0.11;81.59;95070.09;5064555;28;20024;-90
2023/12/19 03:38:39;;;;;;;15.45;7.93;;;;;;;0.08;81.63;95073.16;5064357;28;20021;-91
2023/12/19 03:41:05;;;;;;;21.95;7.85;;;;;;;0.08;81.64;95065.31;5063458;28;20403;-91
2023/12/19 03:43:37;;;;;;;21.00;9.15;;;;;;;0.07;81.56;95062.88;5063843;28;20029;-91
2023/12/19 03:46:04;;;;;;;14.35;8.15;;;;;;;0.06;81.42;95062.09;5064437;28;20058;-92
2023/12/19 03:48:30;;;;;;;18.40;8.10;;;;;;;0.03;81.78;95053.84;5064270;28;20025;-91
2023/12/19 03:50:56;;;;;;;17.00;7.90;;;;;;;0.09;81.75;95063.47;5062897;28;20063;-91
2023/12/19 03:53:22;;;;;;;16.13;8.30;;;;;;;0.08;81.67;95048.75;5064342;28;20299;-92
2023/12/19 03:55:48;;;;;;;17.90;8.10;;;;;;;0.08;81.71;95059.22;5063520;28;20316;-92
2023/12/19 03:58:13;;;;;;;15.90;8.13;;;;;;;0.06;82.02;95050.78;5063435;28;20070;-92
2023/12/19 04:00:39;;;;;;;21.55;9.13;;;;;;;0.06;82.16;95040.31;5063877;28;20052;-92
2023/12/19 04:03:04;;;;;;;18.65;9.75;;;;;;;0.06;82.60;95037.69;5062986;28;20104;-91
2023/12/19 04:05:30;;;;;;;20.85;8.70;;;;;;;0.10;82.11;95037.03;5064045;28;20096;-92
2023/12/19 04:07:55;;;;;;;16.60;8.25;;;;;;;0.10;82.09;95030.97;5062371;28;20028;-92
2023/12/19 04:10:21;;;;;;;19.20;8.63;;;;;;;0.12;82.14;95035.00;5062995;28;20094;-93
2023/12/19 04:12:46;;;;;;;14.55;7.80;;;;;;;0.12;82.62;95035.00;5062961;28;20025;-90
2023/12/19 04:15:11;;;;;;;14.52;8.13;;;;;;;0.12;82.10;95037.63;5063621;28;20029;-91
2023/12/19 04:17:37;;;;;;;20.67;8.15;;;;;;;0.10;82.03;95039.66;5063350;28;20033;-91
2023/12/19 04:20:03;;;;;;;16.05;7.68;;;;;;;0.15;81.69;95031.13;5063833;28;20048;-90
2023/12/19 04:22:31;;;;;;;17.45;7.13;;;;;;;0.15;81.48;95045.03;5063335;28;20033;-90
2023/12/19 04:24:56;;;;;;;16.05;7.28;;;;;;;0.10;81.25;95052.78;5063721;28;20303;-90
2023/12/19 04:27:22;;;;;;;20.25;7.90;;;;;;;0.05;81.15;95044.75;5062603;28;20025;-91
2023/12/19 04:29:47;;;;;;;15.40;7.40;;;;;;;0.02;81.19;95045.19;5063355;28;20021;-90
2023/12/19 04:32:15;;;;;;;15.68;8.00;;;;;;;0.01;81.06;95048.81;5063027;28;20025;-89
2023/12/19 04:34:41;;;;;;;20.50;9.15;;;;;;;-0.01;81.56;95053.47;5063482;28;20200;-90
2023/12/19 04:37:06;;;;;;;18.48;8.60;;;;;;;0.01;82.01;95059.31;5067050;28;20047;-90
2023/12/19 04:39:32;;;;;;;16.42;7.43;;;;;;;0.03;81.98;95054.66;5067021;28;20027;-90
2023/12/19 04:41:59;;;;;;;19.80;8.80;;;;;;;0.02;81.82;95052.25;5067167;28;20028;-90
2023/12/19 04:44:25;;;;;;;17.05;7.85;;;;;;;-0.02;81.81;95057.09;5065738;28;20063;-90
2023/12/19 04:46:50;;;;;;;18.92;8.05;;;;;;;-0.11;81.92;95053.19;5067380;28;20021;-91
2023/12/19 04:49:16;;;;;;;23.10;9.75;;;;;;;-0.09;81.62;95064.25;5067382;28;20032;-91
2023/12/19 04:51:41;;;;;;;18.02;9.07;;;;;;;-0.06;81.49;95069.03;5067034;28;20021;-91
2023/12/19 04:54:08;;;;;;;23.15;9.65;;;;;;;-0.12;81.22;95075.16;5066847;28;20017;-90
2023/12/19 04:56:37;;;;;;;18.83;9.45;;;;;;;-0.18;81.70;95079.47;5066655;28;20020;-90
2023/12/19 04:59:02;;;;;;;30.00;10.50;;;;;;;-0.21;81.89;95080.66;5065667;28;20099;-82
2023/12/19 05:01:28;;;;;;;20.60;9.65;;;;;;;-0.25;82.30;95076.88;5066555;28;20044;-91
2023/12/19 05:03:53;;;;;;;25.67;11.07;;;;;;;-0.23;82.31;95072.22;5066953;28;20024;-90
2023/12/19 05:06:18;;;;;;;19.55;9.52;;;;;;;-0.25;82.47;95078.72;5066568;28;20078;-91
2023/12/19 05:08:45;;;;;;;23.45;11.00;;;;;;;-0.23;82.37;95074.06;5067075;28;20017;-91
2023/12/19 05:11:10;;;;;;;23.55;10.98;;;;;;;-0.23;82.00;95071.44;5066742;28;20021;-91
2023/12/19 05:13:36;;;;;;;21.90;10.55;;;;;;;-0.23;81.90;95077.47;5066676;28;20078;-91
2023/12/19 05:16:15;;;;;;;20.15;10.15;;;;;;;-0.27;81.77;95071.06;5066952;28;20017;-91
2023/12/19 05:18:45;;;;;;;22.30;11.27;;;;;;;-0.29;81.81;95073.09;5065542;28;20099;-92
2023/12/19 05:21:11;;;;;;;22.33;11.30;;;;;;;-0.28;81.68;95074.69;5066726;28;20017;-90
2023/12/19 05:23:38;;;;;;;21.42;9.82;;;;;;;-0.31;81.78;95066.47;5067057;28;20100;-91
2023/12/19 05:26:05;;;;;;;20.70;10.45;;;;;;;-0.35;82.10;95068.72;5066614;28;20421;-91
2023/12/19 05:28:31;;;;;;;23.45;10.32;;;;;;;-0.33;81.99;95074.53;5066695;28;20016;-90
2023/12/19 05:30:57;;;;;;;23.52;11.55;;;;;;;-0.36;82.31;95074.97;5066081;28;20049;-91
2023/12/19 05:33:30;;;;;;;20.45;10.00;;;;;;;-0.31;81.54;95072.50;5066539;28;20025;-91
2023/12/19 05:35:55;;;;;;;23.25;11.40;;;;;;;-0.33;81.87;95076.34;5066607;28;20020;-91
2023/12/19 05:38:21;;;;;;;21.70;9.77;;;;;;;-0.31;81.82;95074.31;5066698;28;20090;-90
2023/12/19 05:40:47;;;;;;;21.92;10.70;;;;;;;-0.34;82.25;95078.19;5064811;28;20020;-90
2023/12/19 05:43:14;;;;;;;27.25;11.52;;;;;;;-0.35;82.28;95073.94;5066311;28;20073;-90
2023/12/19 05:45:40;;;;;;;36.00;13.32;;;;;;;-0.32;81.94;95081.41;5065658;28;20028;-90
2023/12/19 05:48:06;;;;;;;47.35;17.25;;;;;;;-0.31;82.13;95092.66;5065316;28;20104;-91
2023/12/19 05:50:31;;;;;;;36.80;15.50;;;;;;;-0.33;82.03;95089.47;5066317;28;20095;-90
2023/12/19 05:52:57;;;;;;;38.53;15.18;;;;;;;-0.35;82.15;95084.44;5065824;28;20304;-90
2023/12/19 05:55:22;;;;;;;43.35;16.95;;;;;;;-0.31;82.28;95090.03;5066117;28;20075;-91
2023/12/19 05:57:48;;;;;;;48.40;18.70;;;;;;;-0.32;82.35;95083.22;5066367;28;20068;-89
2023/12/19 06:00:15;;;;;;;46.10;18.52;;;;;;;-0.34;82.48;95091.28;5070829;28;20029;-90
2023/12/19 06:02:40;;;;;;;43.92;18.65;;;;;;;-0.33;82.31;95085.00;5065405;28;20025;-91
2023/12/19 06:05:09;;;;;;;41.67;18.70;;;;;;;-0.29;82.16;95075.72;5066379;28;20272;-91
2023/12/19 06:07:38;;;;;;;48.60;20.55;;;;;;;-0.29;81.96;95072.28;5065747;28;20080;-85
2023/12/19 06:10:10;;;;;;;46.00;20.50;;;;;;;-0.31;82.36;95082.19;5065481;28;20189;-91
2023/12/19 06:12:37;;;;;;;44.60;20.15;;;;;;;-0.29;82.58;95074.91;5065690;28;20027;-91
2023/12/19 06:15:08;;;;;;;42.33;19.05;;;;;;;-0.26;82.65;95062.19;5065396;28;20029;-91
2023/12/19 06:17:39;;;;;;;38.00;18.23;;;;;;;-0.24;82.61;95062.78;5064409;28;20027;-88
2023/12/19 06:20:06;;;;;;;53.65;21.42;;;;;;;-0.22;82.56;95073.84;5064995;28;20327;-88
2023/12/19 06:22:31;;;;;;;42.97;19.95;;;;;;;-0.18;82.48;95065.53;5065188;28;20294;-88
2023/12/19 06:24:58;;;;;;;35.15;15.82;;;;;;;-0.12;82.09;95057.63;5064868;28;20070;-88
2023/12/19 06:27:23;;;;;;;35.85;16.10;;;;;;;-0.09;82.16;95057.19;5064561;28;20020;-88
2023/12/19 06:29:49;;;;;;;31.55;13.75;;;;;;;-0.10;82.55;95063.47;5064708;28;20091;-88
2023/12/19 06:32:14;;;;;;;38.25;15.15;;;;;;;-0.05;82.54;95066.22;5064488;28;20331;-84
2023/12/19 06:34:39;;;;;;;27.75;14.00;;;;;;;0.00;82.21;95060.34;5063726;28;20021;-84
2023/12/19 06:37:05;;;;;;;34.42;15.25;;;;;;;0.01;82.37;95069.00;5064197;28;20028;-92
2023/12/19 06:39:30;;;;;;;36.47;16.75;;;;;;;0.04;82.69;95063.31;5064353;28;20099;-92
2023/12/19 06:41:56;;;;;;;40.45;17.25;;;;;;;0.10;82.78;95067.69;5064746;28;20326;-92
2023/12/19 06:44:22;;;;;;;38.30;18.33;;;;;;;0.13;82.77;95073.31;5065450;28;20024;-91
2023/12/19 06:46:50;;;;;;;37.33;17.25;;;;;;;0.16;82.70;95067.63;5066160;28;20028;-91
2023/12/19 06:49:19;;;;;;;44.78;17.45;;;;;;;0.24;82.46;95060.47;5063753;28;20025;-90
2023/12/19 06:51:44;;;;;;;38.92;17.80;;;;;;;0.31;82.20;95058.59;5064584;28;20090;-87
2023/12/19 06:54:10;;;;;;;44.25;19.33;;;;;;;0.36;82.21;95064.78;5063774;28;20016;-87
2023/12/19 06:56:35;;;;;;;42.60;19.77;;;;;;;0.40;82.39;95068.56;5064080;28;20035;-89
2023/12/19 06:59:01;;;;;;;42.40;18.90;;;;;;;0.44;82.54;95068.94;5064013;28;20048;-88
2023/12/19 07:01:27;;;;;;;46.53;19.15;;;;;;;0.49;81.96;95076.94;5064056;28;20219;-89
2023/12/19 07:03:54;;;;;;;38.90;18.95;;;;;;;0.48;81.81;95069.28;5064531;28;20032;-91
2023/12/19 07:06:19;;;;;;;44.63;20.48;;;;;;;0.50;82.28;95072.50;5064568;28;20066;-89
2023/12/19 07:08:45;;;;;;;42.47;19.42;;;;;;;0.57;82.61;95074.03;5069097;28;20310;-90
2023/12/19 07:11:10;;;;;;;36.00;20.63;;;;;;;0.62;82.61;95075.19;5064459;28;20021;-91
2023/12/19 07:13:36;;;;;;;53.75;23.17;;;;;;;0.60;82.82;95085.91;5064452;28;20020;-84
2023/12/19 07:16:05;;;;;;;44.00;23.00;;;;;;;0.64;82.93;95084.44;5063232;28;20047;-89
2023/12/19 07:18:31;;;;;;;50.15;23.40;;;;;;;0.73;82.57;95090.19;5064264;28;20020;-85
2023/12/19 07:20:56;;;;;;;59.75;27.00;;;;;;;0.82;82.31;95088.06;5061675;28;20028;-78
2023/12/19 07:23:22;;;;;;;46.08;23.13;;;;;;;0.89;82.13;95094.81;5062144;28;20283;-77
2023/12/19 07:25:47;;;;;;;47.83;22.50;;;;;;;0.93;82.06;95103.84;5061665;28;20021;-78
2023/12/19 07:28:12;;;;;;;37.30;18.92;;;;;;;0.98;81.87;95106.63;5063225;28;20032;-79
2023/12/19 07:30:39;;;;;;;38.90;17.83;;;;;;;0.98;81.89;95100.56;5063420;28;20044;-80
2023/12/19 07:33:04;;;;;;;38.38;19.27;;;;;;;1.05;81.52;95093.41;5063441;28;20346;-81
2023/12/19 07:35:30;;;;;;;55.63;24.55;;;;;;;1.07;81.88;95080.84;5063480;28;20040;-88
2023/12/19 07:37:55;;;;;;;64.65;26.75;;;;;;;1.11;81.95;95066.25;5061894;28;20096;-80
2023/12/19 07:40:20;;;;;;;70.35;26.73;;;;;;;1.12;81.99;95062.63;5062997;28;20067;-73
2023/12/19 07:42:46;;;;;;;73.40;28.27;;;;;;;1.18;82.20;95050.38;5063056;28;20382;-73
2023/12/19 07:45:11;;;;;;;61.22;25.65;;;;;;;1.26;82.14;95050.06;5061554;28;20098;-73
2023/12/19 07:47:37;;;;;;;47.28;22.52;;;;;;;1.32;82.22;95051.00;5062961;28;20226;-73
2023/12/19 07:50:06;;;;;;;49.45;22.15;;;;;;;1.41;81.75;95054.91;5062595;28;20211;-73
2023/12/19 07:52:31;;;;;;;47.22;20.23;;;;;;;1.43;81.45;95044.97;5062934;28;20036;-73
2023/12/19 07:54:57;;;;;;;41.50;19.83;;;;;;;1.42;81.55;95048.63;5061581;28;20298;-73
2023/12/19 07:57:22;;;;;;;46.97;22.00;;;;;;;1.47;81.82;95059.25;5061618;28;20065;-73
2023/12/19 07:59:48;;;;;;;46.50;21.00;;;;;;;1.51;81.80;95044.66;5061269;28;20099;-73
2023/12/19 08:02:13;;;;;;;55.90;23.55;;;;;;;1.56;82.02;95039.50;5062680;28;20013;-73
2023/12/19 08:04:39;;;;;;;53.83;21.63;;;;;;;1.64;81.94;95032.31;5062625;28;20043;-73
2023/12/19 08:07:05;;;;;;;45.40;21.27;;;;;;;1.73;81.76;95039.63;5062069;28;20062;-73
2023/12/19 08:09:30;;;;;;;47.85;23.13;;;;;;;1.81;81.52;95030.59;5061748;28;20146;-73
2023/12/19 08:11:56;;;;;;;56.35;23.25;;;;;;;1.92;81.46;95042.16;5064806;28;20029;-73
2023/12/19 08:14:23;;;;;;;44.45;23.75;;;;;;;2.02;81.67;95033.69;5066012;28;20096;-73
2023/12/19 08:16:48;;;;;;;57.75;22.55;;;;;;;2.12;81.42;95037.31;5066186;28;20020;-73
2023/12/19 08:19:17;;;;;;;60.40;24.48;;;;;;;2.23;81.22;95035.69;5066448;28;20016;-73
2023/12/19 08:21:53;;;;;;;56.05;25.95;;;;;;;2.31;80.50;95034.53;5066260;28;20048;-73
2023/12/19 08:24:19;;;;;;;55.50;24.95;;;;;;;2.37;80.34;95029.16;5065950;28;20021;-73
2023/12/19 08:26:49;;;;;;;65.78;26.88;;;;;;;2.41;80.15;95040.81;5066034;28;20224;-73
2023/12/19 08:29:15;;;;;;;51.53;25.50;;;;;;;2.47;80.12;95043.56;5066301;28;20021;-73
2023/12/19 08:31:40;;;;;;;62.70;27.95;;;;;;;2.52;79.59;95039.16;5066171;28;20346;-73
2023/12/19 08:34:06;;;;;;;50.55;24.88;;;;;;;2.57;79.72;95038.50;5066316;28;20092;-73
2023/12/19 08:36:32;;;;;;;52.58;25.80;;;;;;;2.63;79.21;95034.13;5066007;28;20092;-73
2023/12/19 08:38:59;;;;;;;60.60;27.10;;;;;;;2.69;79.27;95030.56;5066005;28;20078;-73
2023/12/19 08:41:24;;;;;;;58.03;27.30;;;;;;;2.74;78.74;95020.09;5065901;28;20029;-73
2023/12/19 08:43:49;;;;;;;56.17;28.40;;;;;;;2.78;78.24;95016.75;5065793;28;20302;-73
2023/12/19 08:46:19;;;;;;;62.15;27.58;;;;;;;2.81;78.28;95008.41;5065661;28;20080;-73
2023/12/19 08:48:46;;;;;;;67.28;27.80;;;;;;;2.85;78.45;95000.84;5065793;28;20021;-73
2023/12/19 08:51:11;;;;;;;53.33;28.00;;;;;;;2.94;78.23;95002.03;5065813;28;20048;-73
2023/12/19 08:53:36;;;;;;;64.15;27.65;;;;;;;3.01;78.17;94996.63;5064512;28;20041;-73
2023/12/19 08:56:02;;;;;;;69.55;29.77;;;;;;;3.11;77.45;94986.25;5065608;28;20021;-73
2023/12/19 08:58:27;;;;;;;59.92;28.33;;;;;;;3.21;77.32;94989.06;5065490;28;20051;-73
2023/12/19 09:00:54;;;;;;;59.83;28.23;;;;;;;3.31;76.75;94980.53;5065486;28;20025;-73
2023/12/19 09:03:19;;;;;;;52.45;26.60;;;;;;;3.37;76.93;94974.28;5065542;28;20053;-73
2023/12/19 09:05:45;;;;;;;55.88;27.10;;;;;;;3.48;76.52;94971.81;5065468;28;20059;-73
2023/12/19 09:08:11;;;;;;;50.67;25.73;;;;;;;3.53;76.25;94977.16;5065510;28;20100;-73
2023/12/19 09:10:36;;;;;;;46.17;24.58;;;;;;;3.56;76.22;94979.31;5065346;28;20032;-74
2023/12/19 09:13:01;;;;;;;50.28;25.42;;;;;;;3.57;75.84;94973.00;5064004;28;20025;-74
2023/12/19 09:15:27;;;;;;;45.97;23.48;;;;;;;3.45;75.83;94970.47;5065177;28;20048;-73
2023/12/19 09:17:52;;;;;;;41.65;22.17;;;;;;;3.54;75.56;94957.66;5064983;28;20092;-73
2023/12/19 09:20:18;;;;;;;42.03;20.23;;;;;;;3.61;75.32;94953.81;5064988;28;20029;-73
2023/12/19 09:22:43;;;;;;;39.13;20.30;;;;;;;3.68;74.47;94953.66;5064763;28;20036;-73
2023/12/19 09:25:14;;;;;;;42.38;20.40;;;;;;;3.66;74.39;94949.66;5064981;28;20033;-73
2023/12/19 09:27:43;;;;;;;44.72;20.98;;;;;;;3.71;74.09;94945.25;5064956;28;20261;-73
2023/12/19 09:30:10;;;;;;;38.50;18.52;;;;;;;3.78;73.54;94945.88;5064765;28;20021;-73
2023/12/19 09:32:40;;;;;;;37.15;19.45;;;;;;;3.93;72.88;94933.94;5064789;28;20078;-73
2023/12/19 09:35:07;;;;;;;39.83;19.55;;;;;;;3.98;72.91;94940.06;5064609;28;20024;-73
2023/12/19 09:37:32;;;;;;;52.25;22.10;;;;;;;4.07;72.74;94943.09;5064659;28;20032;-74
2023/12/19 09:39:57;;;;;;;52.58;24.48;;;;;;;4.05;73.05;94937.28;5064749;28;20323;-73
2023/12/19 09:42:23;;;;;;;55.88;27.85;;;;;;;4.14;73.45;94945.53;5064519;28;20013;-73
2023/12/19 09:44:49;;;;;;;61.17;29.40;;;;;;;4.24;73.20;94947.53;5064589;28;20275;-73
2023/12/19 09:47:23;;;;;;;57.75;28.88;;;;;;;4.30;72.90;94941.25;5064887;28;20155;-73
2023/12/19 09:49:51;;;;;;;55.47;28.55;;;;;;;4.32;72.62;94937.31;5064365;28;20021;-73
2023/12/19 09:52:18;;;;;;;59.58;30.10;;;;;;;4.39;72.09;94934.47;5064489;28;20234;-73
2023/12/19 09:54:44;;;;;;;66.50;30.48;;;;;;;4.44;72.22;94937.19;5064462;28;20059;-73
2023/12/19 09:57:12;;;;;;;64.20;30.95;;;;;;;4.43;72.32;94933.72;5064245;28;20112;-73
2023/12/19 09:59:39;;;;;;;64.13;31.98;;;;;;;4.53;72.40;94933.03;5064341;28;20028;-73
2023/12/19 10:02:05;;;;;;;67.60;32.17;;;;;;;4.61;71.88;94927.31;5064196;28;20259;-73
2023/12/19 10:04:30;;;;;;;73.88;33.95;;;;;;;4.71;71.76;94918.69;5064119;28;20032;-73
2023/12/19 10:07:00;;;;;;;65.88;32.63;;;;;;;4.76;71.79;94904.75;5064322;28;20140;-75
2023/12/19 10:09:26;;;;;;;67.75;32.22;;;;;;;4.82;71.67;94909.03;5064206;28;20020;-72
2023/12/19 10:12:09;;;;;;;72.18;32.85;;;;;;;4.91;72.00;94907.53;5064290;28;20323;-73
2023/12/19 10:14:35;;;;;;;70.18;33.35;;;;;;;4.92;71.83;94897.75;5063812;28;20024;-73
2023/12/19 10:17:04;;;;;;;74.80;33.80;;;;;;;5.01;71.47;94898.91;5063885;28;20020;-73
2023/12/19 10:19:30;;;;;;;69.90;36.72;;;;;;;5.11;71.18;94895.50;5064040;28;20250;-72
2023/12/19 10:22:08;;;;;;;74.53;34.35;;;;;;;5.20;70.58;94894.78;5062614;28;20334;-72
2023/12/19 10:24:34;;;;;;;66.13;34.05;;;;;;;5.26;70.62;94882.41;5063818;28;20033;-73
2023/12/19 10:27:02;;;;;;;73.43;37.58;;;;;;;5.33;70.84;94888.28;5063784;28;20028;-72
2023/12/19 10:29:35;;;;;;;68.03;36.13;;;;;;;5.41;70.94;94874.59;5063492;28;20087;-72
2023/12/19 10:32:14;;;;;;;76.05;38.63;;;;;;;5.47;70.50;94872.75;5063477;28;20067;-72
2023/12/19 10:34:41;;;;;;;73.00;39.00;;;;;;;5.55;69.54;94877.56;5063431;28;20035;-72
2023/12/19 10:37:11;;;;;;;77.03;39.90;;;;;;;5.66;69.76;94867.03;5063628;28;20231;-72
2023/12/19 10:39:38;;;;;;;74.95;40.17;;;;;;;5.73;69.41;94862.31;5063663;28;20219;-72
2023/12/19 10:42:04;;;;;;;88.30;38.80;;;;;;;5.83;68.40;94852.59;5063553;28;20052;-72
2023/12/19 10:44:32;;;;;;;87.93;40.20;;;;;;;5.88;67.92;94843.06;5063608;28;20029;-72
2023/12/19 10:47:03;;;;;;;74.20;38.90;;;;;;;5.93;67.41;94841.25;5063266;28;20143;-73
2023/12/19 10:49:29;;;;;;;80.05;40.47;;;;;;;5.97;67.20;94829.13;5063300;28;20096;-73
2023/12/19 10:51:57;;;;;;;87.68;42.15;;;;;;;5.98;67.77;94824.63;5063482;28;20048;-73
2023/12/19 10:54:25;;;;;;;81.43;40.47;;;;;;;5.87;68.53;94823.75;5063379;28;20029;-73
2023/12/19 10:56:54;;;;;;;89.82;43.55;;;;;;;6.03;68.84;94822.00;5061951;28;20265;-73
2023/12/19 10:59:30;;;;;;;90.43;42.25;;;;;;;6.19;68.85;94809.59;5062964;28;20314;-73
2023/12/19 11:02:04;;;;;;;82.68;41.33;;;;;;;6.27;68.41;94808.28;5062293;28;20059;-73
2023/12/19 11:04:32;;;;;;;89.75;41.20;;;;;;;6.29;68.67;94808.81;5062415;28;20062;-73
2023/12/19 11:07:03;;;;;;;77.45;41.97;;;;;;;6.29;69.04;94801.69;5062291;28;20089;-72
2023/12/19 11:09:33;;;;;;;83.13;41.50;;;;;;;6.25;68.95;94797.16;5062247;28;20310;-73
2023/12/19 11:11:59;;;;;;;84.50;39.90;;;;;;;6.37;68.22;94790.56;5062226;28;20033;-73
2023/12/19 11:14:26;;;;;;;89.35;40.20;;;;;;;6.54;66.37;94785.00;5062289;28;20063;-72
2023/12/19 11:17:09;;;;;;;82.38;40.50;;;;;;;6.61;66.27;94774.94;5060970;28;20033;-73
2023/12/19 11:19:44;;;;;;;79.85;39.22;;;;;;;6.66;65.99;94765.41;5062106;28;20044;-75
2023/12/19 11:22:31;;;;;;;87.28;40.92;;;;;;;6.72;66.27;94769.66;5061878;28;20039;-73